Time;durP1;ratioP1;P1;durP2;ratioP2;P2;SDS_P1;SDS_P2;PMS_P1;PMS_P2;Temp;Humidity;BMP_temperature;BMP_pressure;BME280_temperature;BME280_humidity;BME280_pressure;Samples;Min_cycle;Max_cycle;Signal;HPM_P1;HPM_P2
2023/07/11 00:00:15;;;;;;;10.15;5.30;;;;;;;25.01;nan;100565.22;4976421;28;20112;-73
2023/07/11 00:02:45;;;;;;;13.95;5.72;;;;;;;25.06;nan;100573.16;4971094;28;20117;-73
2023/07/11 00:05:16;;;;;;;9.10;5.35;;;;;;;25.03;nan;100569.19;4972172;28;20038;-72
2023/07/11 00:07:42;;;;;;;9.52;5.60;;;;;;;24.91;nan;100555.56;4972660;28;20470;-73
2023/07/11 00:10:11;;;;;;;13.10;5.78;;;;;;;24.96;nan;100562.69;4975096;28;20030;-70
2023/07/11 00:12:37;;;;;;;12.13;5.72;;;;;;;24.65;nan;100522.47;4974443;28;20039;-70
2023/07/11 00:15:03;;;;;;;9.77;5.10;;;;;;;24.84;nan;100553.34;4979542;28;20379;-69
2023/07/11 00:17:28;;;;;;;10.25;5.53;;;;;;;24.84;nan;100557.94;4973414;28;20018;-70
2023/07/11 00:19:56;;;;;;;10.68;5.07;;;;;;;24.84;nan;100564.13;4973667;28;20366;-70
2023/07/11 00:22:23;;;;;;;8.07;5.07;;;;;;;24.82;nan;100563.63;4971007;28;20663;-70
2023/07/11 00:24:49;;;;;;;12.05;5.40;;;;;;;24.79;nan;100555.41;4974897;28;20050;-69
2023/07/11 00:27:17;;;;;;;13.70;5.55;;;;;;;24.75;nan;100544.47;4971957;28;20046;-69
2023/07/11 00:29:43;;;;;;;9.25;5.22;;;;;;;24.80;nan;100557.00;4974748;28;20039;-69
2023/07/11 00:32:09;;;;;;;10.82;5.05;;;;;;;24.70;nan;100539.25;4976366;28;20033;-69
2023/07/11 00:34:35;;;;;;;12.85;5.80;;;;;;;24.68;nan;100530.69;4973640;28;20031;-69
2023/07/11 00:37:00;;;;;;;8.77;5.43;;;;;;;24.70;nan;100550.00;4972267;28;20022;-70
2023/07/11 00:39:27;;;;;;;7.68;5.30;;;;;;;24.51;nan;100536.06;4970619;28;20507;-69
2023/07/11 00:41:53;;;;;;;13.85;5.93;;;;;;;24.64;nan;100564.75;4972035;28;20161;-69
2023/07/11 00:44:18;;;;;;;9.75;5.60;;;;;;;24.55;nan;100553.97;4943960;28;20513;-69
2023/07/11 00:46:44;;;;;;;11.52;5.78;;;;;;;24.58;nan;100563.31;4971217;28;20382;-70
2023/07/11 00:49:12;;;;;;;12.75;5.43;;;;;;;24.52;nan;100561.88;4972356;28;20027;-69
2023/07/11 00:51:41;;;;;;;13.67;5.93;;;;;;;24.48;nan;100561.72;4970252;28;20543;-70
2023/07/11 00:54:11;;;;;;;12.82;5.60;;;;;;;24.42;nan;100554.84;4969083;28;20050;-69
2023/07/11 00:56:43;;;;;;;8.02;5.65;;;;;;;24.45;nan;100569.63;4968120;28;20030;-70
2023/07/11 00:59:09;;;;;;;8.85;5.80;;;;;;;24.41;nan;100559.47;4973127;28;20134;-70
2023/07/11 01:01:34;;;;;;;11.90;5.82;;;;;;;24.38;nan;100560.09;4974916;28;20113;-70
2023/07/11 01:04:03;;;;;;;8.73;5.50;;;;;;;24.41;nan;100569.44;4976260;28;20692;-71
2023/07/11 01:06:30;;;;;;;9.63;5.70;;;;;;;24.35;nan;100559.91;4969993;28;20102;-71
2023/07/11 01:08:57;;;;;;;14.50;5.60;;;;;;;24.30;nan;100563.56;4971035;28;20522;-69
2023/07/11 01:11:26;;;;;;;10.80;5.68;;;;;;;24.28;nan;100560.38;4970464;28;20046;-70
2023/07/11 01:13:52;;;;;;;;;;;;;;;24.31;nan;100564.34;4968868;28;20504;-70
2023/07/11 01:16:17;;;;;;;14.65;5.53;;;;;;;24.31;nan;100564.34;4969617;28;19976;-70
2023/07/11 01:18:44;;;;;;;12.60;6.05;;;;;;;24.22;nan;100558.94;4969777;28;20117;-70
2023/07/11 01:21:17;;;;;;;10.82;5.70;;;;;;;24.25;nan;100555.63;4970834;28;20038;-73
2023/07/11 01:23:43;;;;;;;15.00;6.25;;;;;;;24.24;nan;100559.44;4974415;28;20026;-73
2023/07/11 01:26:11;;;;;;;8.85;6.30;;;;;;;24.28;nan;100573.84;4973514;28;20023;-73
2023/07/11 01:28:37;;;;;;;12.40;5.88;;;;;;;24.09;nan;100547.19;4973021;28;20030;-73
2023/07/11 01:31:03;;;;;;;11.82;6.28;;;;;;;24.22;nan;100568.91;4972465;28;20146;-73
2023/07/11 01:33:29;;;;;;;7.88;5.28;;;;;;;24.11;nan;100560.31;4971147;28;20109;-74
2023/07/11 01:35:55;;;;;;;10.73;5.85;;;;;;;24.14;nan;100582.03;4972221;28;20070;-74
2023/07/11 01:38:22;;;;;;;15.77;6.25;;;;;;;24.13;nan;100582.34;4972532;28;20105;-73
2023/07/11 01:40:49;;;;;;;17.63;6.50;;;;;;;24.08;nan;100569.03;4966865;28;20026;-73
2023/07/11 01:43:17;;;;;;;13.63;6.45;;;;;;;24.12;nan;100572.69;4972765;28;20095;-73
2023/07/11 01:45:42;;;;;;;12.32;6.13;;;;;;;24.03;nan;100558.41;4967512;28;20388;-73
2023/07/11 01:48:07;;;;;;;10.77;5.90;;;;;;;24.12;nan;100570.00;4973087;28;20034;-74
2023/07/11 01:50:33;;;;;;;11.25;6.43;;;;;;;24.10;nan;100562.22;4971470;28;20082;-74
2023/07/11 01:52:58;;;;;;;9.63;5.93;;;;;;;24.09;nan;100573.31;4960406;28;20051;-74
2023/07/11 01:55:25;;;;;;;14.43;6.22;;;;;;;24.07;nan;100570.94;4973495;28;20026;-73
2023/07/11 01:57:50;;;;;;;10.93;6.20;;;;;;;24.09;nan;100568.72;4971348;28;20059;-73
2023/07/11 02:00:16;;;;;;;16.80;6.45;;;;;;;24.09;nan;100573.31;4959803;28;20112;-74
2023/07/11 02:02:41;;;;;;;13.75;6.03;;;;;;;24.08;nan;100582.47;4971534;28;23045;-73
2023/07/11 02:05:07;;;;;;;16.25;5.97;;;;;;;24.06;nan;100582.78;4971243;28;20062;-73
2023/07/11 02:07:32;;;;;;;15.73;6.25;;;;;;;24.05;nan;100588.50;4954428;28;20031;-73
2023/07/11 02:09:58;;;;;;;11.35;6.20;;;;;;;24.02;nan;100581.06;4970688;28;20030;-73
2023/07/11 02:12:23;;;;;;;12.50;6.45;;;;;;;24.01;nan;100587.50;4972305;28;20054;-73
2023/07/11 02:14:48;;;;;;;12.15;5.90;;;;;;;23.98;nan;100588.94;4958801;28;20487;-73
2023/07/11 02:17:14;;;;;;;10.43;6.68;;;;;;;23.95;nan;100587.66;4969794;28;20038;-73
2023/07/11 02:19:40;;;;;;;10.18;6.60;;;;;;;23.95;nan;100587.66;4972029;28;20045;-73
2023/07/11 02:22:07;;;;;;;8.40;5.97;;;;;;;23.79;nan;100567.66;4968694;28;20026;-74
2023/07/11 02:24:32;;;;;;;9.45;6.13;;;;;;;23.82;nan;100583.16;4971461;28;20060;-73
2023/07/11 02:26:57;;;;;;;15.27;6.07;;;;;;;23.86;nan;100584.13;4970657;28;20049;-73
2023/07/11 02:29:23;;;;;;;13.07;6.28;;;;;;;23.83;nan;100578.59;4968999;28;20481;-75
2023/07/11 02:31:48;;;;;;;10.68;6.40;;;;;;;23.85;nan;100579.88;4968664;28;20073;-75
2023/07/11 02:34:14;;;;;;;13.13;6.25;;;;;;;23.66;nan;100555.06;4969318;28;20092;-74
2023/07/11 02:36:39;;;;;;;12.15;6.32;;;;;;;23.90;nan;100595.06;4969949;28;20034;-74
2023/07/11 02:39:04;;;;;;;8.85;6.18;;;;;;;23.89;nan;100599.63;4967486;28;20943;-74
2023/07/11 02:41:30;;;;;;;9.43;6.47;;;;;;;23.91;nan;100597.44;4966979;28;20030;-74
2023/07/11 02:43:55;;;;;;;13.57;5.85;;;;;;;23.85;nan;100581.75;4953465;28;20600;-74
2023/07/11 02:46:21;;;;;;;12.02;6.60;;;;;;;23.60;nan;100546.34;4971493;28;20801;-74
2023/07/11 02:48:46;;;;;;;11.10;6.25;;;;;;;23.89;nan;100602.34;4970156;28;20133;-74
2023/07/11 02:51:12;;;;;;;13.70;6.50;;;;;;;23.85;nan;100601.38;4968605;28;20018;-74
2023/07/11 02:53:37;;;;;;;10.02;6.30;;;;;;;23.83;nan;100602.78;4968756;28;20034;-74
2023/07/11 02:56:03;;;;;;;8.63;6.20;;;;;;;23.77;nan;100599.44;4966951;28;20049;-74
2023/07/11 02:58:29;;;;;;;10.77;6.13;;;;;;;23.72;nan;100597.63;4964387;28;20085;-73
2023/07/11 03:00:55;;;;;;;11.20;6.75;;;;;;;23.72;nan;100600.31;4970428;28;20109;-73
2023/07/11 03:03:21;;;;;;;23.55;6.50;;;;;;;23.57;nan;100584.59;4968113;28;20860;-73
2023/07/11 03:05:48;;;;;;;12.95;6.38;;;;;;;23.62;nan;100602.50;4964447;28;20035;-73
2023/07/11 03:08:15;;;;;;;10.25;6.45;;;;;;;23.62;nan;100607.88;4964967;28;20034;-73
2023/07/11 03:10:40;;;;;;;15.25;6.15;;;;;;;23.57;nan;100612.25;4948758;28;20122;-74
2023/07/11 03:13:06;;;;;;;15.20;6.78;;;;;;;23.48;nan;100608.72;4942451;28;20119;-72
2023/07/11 03:15:36;;;;;;;10.95;6.22;;;;;;;23.35;nan;100593.47;4948280;28;20046;-72
2023/07/11 03:18:01;;;;;;;8.93;6.07;;;;;;;23.34;nan;100602.63;4970217;28;20118;-72
2023/07/11 03:20:26;;;;;;;12.80;7.10;;;;;;;23.25;nan;100594.50;4970459;28;20547;-72
2023/07/11 03:22:52;;;;;;;13.93;6.30;;;;;;;23.27;nan;100600.38;4966490;28;21370;-73
2023/07/11 03:25:17;;;;;;;11.07;6.60;;;;;;;23.13;nan;100592.38;4966928;28;20018;-73
2023/07/11 03:27:43;;;;;;;11.00;6.22;;;;;;;23.16;nan;100601.72;4952269;28;20085;-73
2023/07/11 03:30:09;;;;;;;9.55;5.88;;;;;;;23.16;nan;100593.66;4966225;28;20054;-69
2023/07/11 03:32:35;;;;;;;11.38;6.38;;;;;;;23.13;nan;100599.63;4964778;28;20057;-70
2023/07/11 03:35:00;;;;;;;13.52;6.20;;;;;;;23.09;nan;100599.44;4944120;28;20026;-72
2023/07/11 03:37:25;;;;;;;14.90;6.72;;;;;;;23.02;nan;100595.59;4967187;28;20024;-72
2023/07/11 03:39:51;;;;;;;14.25;6.43;;;;;;;23.01;nan;100599.34;4966631;28;20572;-72
2023/07/11 03:42:16;;;;;;;12.60;7.07;;;;;;;22.95;nan;100604.03;4952252;28;20101;-73
2023/07/11 03:44:42;;;;;;;13.57;6.07;;;;;;;22.93;nan;100611.59;4968768;28;20027;-73
2023/07/11 03:47:08;;;;;;;10.35;6.20;;;;;;;22.90;nan;100609.50;4966082;28;20035;-73
2023/07/11 03:49:34;;;;;;;12.05;6.28;;;;;;;22.86;nan;100614.69;4972874;28;20037;-73
2023/07/11 03:51:59;;;;;;;16.60;6.60;;;;;;;22.84;nan;100613.41;4967323;28;20046;-73
2023/07/11 03:54:25;;;;;;;12.30;6.47;;;;;;;22.72;nan;100603.19;4947901;28;20022;-70
2023/07/11 03:56:51;;;;;;;9.65;6.30;;;;;;;22.76;nan;100612.22;4966186;28;20023;-70
2023/07/11 03:59:16;;;;;;;14.57;6.47;;;;;;;22.64;nan;100610.06;4977536;28;20080;-69
2023/07/11 04:01:42;;;;;;;14.73;7.30;;;;;;;22.61;nan;100612.56;4970236;28;20026;-72
2023/07/11 04:04:07;;;;;;;15.05;6.97;;;;;;;22.48;nan;100608.78;4970488;28;20026;-70
2023/07/11 04:06:33;;;;;;;13.68;6.90;;;;;;;22.44;nan;100615.84;4972885;28;20424;-69
2023/07/11 04:08:58;;;;;;;14.38;7.05;;;;;;;22.45;nan;100626.28;4969256;28;20493;-73
2023/07/11 04:11:23;;;;;;;15.75;7.15;;;;;;;22.39;nan;100615.97;4970285;28;20037;-74
2023/07/11 04:13:49;;;;;;;12.27;7.50;;;;;;;22.31;nan;100604.00;4969658;28;20447;-73
2023/07/11 04:16:14;;;;;;;15.50;7.00;;;;;;;22.32;nan;100615.56;4970481;28;20117;-74
2023/07/11 04:18:40;;;;;;;13.60;7.78;;;;;;;22.24;nan;100604.44;4971550;28;20030;-73
2023/07/11 04:21:06;;;;;;;17.70;7.75;;;;;;;22.25;nan;100603.34;4968599;28;20036;-74
2023/07/11 04:23:32;;;;;;;14.25;7.70;;;;;;;22.21;nan;100596.19;4987420;28;20038;-73
2023/07/11 04:25:57;;;;;;;15.80;7.55;;;;;;;22.20;nan;100603.44;4968991;28;20109;-72
2023/07/11 04:28:23;;;;;;;18.00;8.07;;;;;;;22.15;nan;100592.78;4969017;28;20038;-72
2023/07/11 04:30:48;;;;;;;16.77;7.70;;;;;;;22.20;nan;100603.44;4970481;28;20037;-72
2023/07/11 04:33:13;;;;;;;14.00;8.00;;;;;;;22.19;nan;100601.00;4971203;28;20149;-73
2023/07/11 04:35:40;;;;;;;10.25;7.30;;;;;;;22.24;nan;100617.03;4970489;28;20031;-71
2023/07/11 04:38:06;;;;;;;14.13;7.57;;;;;;;22.22;nan;100611.97;4971102;28;20038;-71
2023/07/11 04:40:31;;;;;;;14.07;8.00;;;;;;;22.23;nan;100610.88;4970189;28;20039;-71
2023/07/11 04:42:58;;;;;;;20.52;7.88;;;;;;;22.19;nan;100607.16;4967948;28;20547;-74
2023/07/11 04:45:27;;;;;;;11.05;8.15;;;;;;;22.20;nan;100608.78;4969681;28;20121;-74
2023/07/11 04:47:52;;;;;;;14.50;7.47;;;;;;;22.23;nan;100613.56;4970969;28;20042;-72
2023/07/11 04:50:17;;;;;;;13.40;6.88;;;;;;;22.18;nan;100602.91;4969783;28;20650;-73
2023/07/11 04:52:44;;;;;;;16.52;7.88;;;;;;;22.21;nan;100610.38;4956608;28;20034;-74
2023/07/11 04:55:09;;;;;;;13.98;7.90;;;;;;;22.25;nan;100610.59;4949257;28;20034;-73
2023/07/11 04:57:35;;;;;;;13.07;8.38;;;;;;;22.25;nan;100611.38;4970571;28;20035;-72
2023/07/11 05:00:01;;;;;;;11.82;7.97;;;;;;;22.32;nan;100616.34;4968658;28;20109;-73
2023/07/11 05:02:26;;;;;;;16.73;8.52;;;;;;;22.27;nan;100601.16;4974371;28;20030;-74
2023/07/11 05:04:52;;;;;;;14.70;7.80;;;;;;;22.39;nan;100611.38;4967909;28;20847;-72
2023/07/11 05:07:17;;;;;;;11.90;7.65;;;;;;;22.41;nan;100616.44;4970121;28;20367;-72
2023/07/11 05:09:43;;;;;;;10.90;8.35;;;;;;;22.48;nan;100625.69;4968898;28;21000;-72
2023/07/11 05:12:10;;;;;;;16.85;7.85;;;;;;;22.49;nan;100613.84;4950354;28;20026;-73
2023/07/11 05:14:36;;;;;;;13.48;8.07;;;;;;;22.58;nan;100623.88;4971542;28;20072;-73
2023/07/11 05:17:01;;;;;;;11.32;8.40;;;;;;;22.55;nan;100609.16;4975594;28;20453;-70
2023/07/11 05:19:27;;;;;;;14.98;8.07;;;;;;;22.71;nan;100623.88;4971123;28;20035;-71
2023/07/11 05:21:52;;;;;;;12.07;8.10;;;;;;;22.68;nan;100608.38;4950314;28;20022;-72
2023/07/11 05:24:18;;;;;;;15.90;8.93;;;;;;;22.79;nan;100621.56;4968413;28;20026;-69
2023/07/11 05:26:44;;;;;;;13.25;8.48;;;;;;;22.85;nan;100618.47;4972649;28;20025;-73
2023/07/11 05:29:10;;;;;;;20.38;9.13;;;;;;;22.95;nan;100628.19;4971782;28;20035;-73
2023/07/11 05:31:35;;;;;;;15.20;8.82;;;;;;;23.00;nan;100628.09;4968448;28;20109;-71
2023/07/11 05:34:01;;;;;;;16.75;9.20;;;;;;;23.07;nan;100630.38;4968319;28;20086;-70
2023/07/11 05:36:31;;;;;;;12.40;7.65;;;;;;;23.09;nan;100622.81;4970542;28;20022;-72
2023/07/11 05:39:17;;;;;;;14.07;8.77;;;;;;;23.14;nan;100620.03;4966400;28;20110;-70
2023/07/11 05:41:49;;;;;;;20.13;9.02;;;;;;;23.17;nan;100619.41;4954376;28;20065;-71
2023/07/11 05:44:16;;;;;;;17.15;8.90;;;;;;;23.23;nan;100615.50;4969678;28;20034;-70
2023/07/11 05:46:42;;;;;;;12.13;8.50;;;;;;;23.30;nan;100626.63;4969971;28;20030;-72
2023/07/11 05:49:08;;;;;;;16.20;8.60;;;;;;;23.42;nan;100636.84;4964516;28;20027;-69
2023/07/11 05:51:34;;;;;;;16.35;8.18;;;;;;;23.40;nan;100628.28;4971726;28;20109;-68
2023/07/11 05:54:00;;;;;;;14.88;8.88;;;;;;;23.54;nan;100634.38;4971413;28;20027;-69
2023/07/11 05:56:26;;;;;;;17.52;9.27;;;;;;;23.38;nan;100608.19;4972929;28;20035;-71
2023/07/11 05:58:53;;;;;;;13.50;8.88;;;;;;;23.61;nan;100633.97;4974243;28;20029;-72
2023/07/11 06:01:24;;;;;;;14.50;8.88;;;;;;;23.65;nan;100639.50;4971854;28;20117;-70
2023/07/11 06:04:01;;;;;;;16.08;9.05;;;;;;;23.67;nan;100637.31;4976629;28;20026;-70
2023/07/11 06:06:26;;;;;;;15.55;9.38;;;;;;;23.69;nan;100635.91;4975819;28;20069;-71
2023/07/11 06:08:52;;;;;;;12.70;8.43;;;;;;;23.75;nan;100636.59;4950462;28;20035;-72
2023/07/11 06:11:17;;;;;;;16.25;8.68;;;;;;;23.84;nan;100639.34;4955104;28;20055;-72
2023/07/11 06:13:42;;;;;;;15.27;9.20;;;;;;;23.84;nan;100629.38;4957178;28;20046;-71
2023/07/11 06:16:15;;;;;;;18.00;9.10;;;;;;;23.91;nan;100621.66;4971574;28;20027;-71
2023/07/11 06:18:40;;;;;;;14.50;8.90;;;;;;;24.01;nan;100627.88;4961678;28;20058;-69
2023/07/11 06:21:08;;;;;;;13.55;9.23;;;;;;;24.10;nan;100631.38;4971441;28;20065;-72
2023/07/11 06:23:33;;;;;;;14.82;8.65;;;;;;;24.13;nan;100623.47;4954345;28;20452;-71
2023/07/11 06:25:59;;;;;;;12.63;8.95;;;;;;;24.18;nan;100615.28;4970850;28;20026;-71
2023/07/11 06:28:25;;;;;;;18.30;9.10;;;;;;;24.28;nan;100627.69;4968899;28;20027;-71
2023/07/11 06:30:54;;;;;;;16.30;8.30;;;;;;;24.30;nan;100621.97;4966922;28;20556;-70
2023/07/11 06:33:19;;;;;;;16.73;9.50;;;;;;;24.41;nan;100623.28;4969450;28;20026;-69
2023/07/11 06:35:51;;;;;;;14.43;8.13;;;;;;;24.49;nan;100624.44;4969406;28;20090;-69
2023/07/11 06:38:18;;;;;;;16.65;8.50;;;;;;;24.47;nan;100605.09;4968425;28;20492;-72
2023/07/11 06:40:51;;;;;;;13.38;8.75;;;;;;;24.61;nan;100617.34;4957723;28;20037;-72
2023/07/11 06:43:18;;;;;;;19.23;8.70;;;;;;;24.70;nan;100621.94;4971448;28;20027;-69
2023/07/11 06:45:48;;;;;;;14.00;8.25;;;;;;;24.67;nan;100606.41;4973270;28;20030;-72
2023/07/11 06:48:14;;;;;;;17.40;9.07;;;;;;;24.80;nan;100614.34;4970353;28;20113;-70
2023/07/11 06:50:41;;;;;;;15.73;8.38;;;;;;;24.86;nan;100608.81;4972133;28;20030;-72
2023/07/11 06:53:06;;;;;;;12.13;8.30;;;;;;;24.88;nan;100603.88;4966651;28;20034;-71
2023/07/11 06:55:31;;;;;;;12.07;8.32;;;;;;;25.01;nan;100609.13;4981990;28;20026;-69
2023/07/11 06:57:57;;;;;;;10.55;8.05;;;;;;;25.09;nan;100607.53;4972400;28;20066;-70
2023/07/11 07:00:24;;;;;;;14.77;8.63;;;;;;;25.15;nan;100608.97;4972338;28;20467;-69
2023/07/11 07:02:50;;;;;;;14.15;8.70;;;;;;;25.19;nan;100606.47;4969999;28;20027;-69
2023/07/11 07:05:15;;;;;;;13.70;8.13;;;;;;;25.25;nan;100597.09;4964706;28;20436;-69
2023/07/11 07:07:43;;;;;;;18.63;8.52;;;;;;;25.30;nan;100596.16;4974588;28;20034;-71
2023/07/11 07:10:09;;;;;;;16.50;8.30;;;;;;;25.33;nan;100599.00;4943804;28;20040;-70
2023/07/11 07:12:34;;;;;;;11.48;7.68;;;;;;;25.47;nan;100601.50;4963104;28;20023;-71
2023/07/11 07:14:59;;;;;;;11.18;7.60;;;;;;;25.40;nan;100577.72;4953783;28;20057;-71
2023/07/11 07:17:25;;;;;;;21.83;8.48;;;;;;;25.55;nan;100586.41;4948110;28;20497;-68
2023/07/11 07:19:51;;;;;;;17.30;8.50;;;;;;;25.58;nan;100589.28;4951431;28;20030;-69
2023/07/11 07:22:16;;;;;;;15.13;8.25;;;;;;;25.67;nan;100602.75;4947646;28;20082;-68
2023/07/11 07:24:43;;;;;;;10.43;7.70;;;;;;;25.68;nan;100594.31;4952642;28;20061;-69
2023/07/11 07:27:10;;;;;;;13.15;7.90;;;;;;;25.74;nan;100596.84;4948398;28;20150;-69
2023/07/11 07:29:35;;;;;;;15.55;8.65;;;;;;;25.81;nan;100599.81;4949120;28;20031;-69
2023/07/11 07:32:01;;;;;;;11.48;7.60;;;;;;;25.79;nan;100580.50;4949214;28;20073;-70
2023/07/11 07:34:26;;;;;;;10.73;7.28;;;;;;;25.89;nan;100591.75;4953542;28;20118;-69
2023/07/11 07:36:51;;;;;;;10.50;7.43;;;;;;;25.99;nan;100600.59;4953152;28;20023;-69
2023/07/11 07:39:17;;;;;;;12.10;7.90;;;;;;;25.96;nan;100582.38;4950476;28;20046;-68
2023/07/11 07:41:42;;;;;;;14.30;7.93;;;;;;;26.02;nan;100584.53;4956729;28;20022;-69
2023/07/11 07:44:08;;;;;;;18.80;7.55;;;;;;;26.09;nan;100584.03;4971417;28;20046;-68
2023/07/11 07:46:33;;;;;;;15.60;8.38;;;;;;;26.24;nan;100594.28;4960540;28;20547;-73
2023/07/11 07:48:59;;;;;;;12.60;7.60;;;;;;;26.31;nan;100591.06;4951087;28;20034;-73
2023/07/11 07:51:24;;;;;;;14.90;7.25;;;;;;;26.29;nan;100574.38;4951739;28;20031;-67
2023/07/11 07:53:49;;;;;;;16.00;7.25;;;;;;;26.42;nan;100570.66;4954430;28;20087;-68
2023/07/11 07:56:19;;;;;;;13.93;7.07;;;;;;;26.52;nan;100575.69;4950889;28;20020;-72
2023/07/11 07:58:45;;;;;;;12.77;7.00;;;;;;;26.65;nan;100583.88;4951241;28;20047;-71
2023/07/11 08:01:12;;;;;;;12.95;7.13;;;;;;;26.72;nan;100573.34;4946192;28;20554;-71
2023/07/11 08:03:38;;;;;;;13.20;7.15;;;;;;;26.82;nan;100566.78;4953929;28;20035;-72
2023/07/11 08:06:05;;;;;;;13.65;7.40;;;;;;;26.93;nan;100582.22;4953445;28;20365;-71
2023/07/11 08:08:31;;;;;;;10.88;7.15;;;;;;;27.04;nan;100571.81;4949714;28;20074;-72
2023/07/11 08:11:01;;;;;;;16.33;7.13;;;;;;;27.13;nan;100569.81;4953022;28;20054;-73
2023/07/11 08:13:26;;;;;;;11.55;6.53;;;;;;;27.04;nan;100538.59;4951695;28;20078;-72
2023/07/11 08:15:52;;;;;;;14.65;7.10;;;;;;;27.31;nan;100566.97;4971760;28;20389;-71
2023/07/11 08:18:17;;;;;;;15.27;7.40;;;;;;;27.45;nan;100572.09;4957047;28;20057;-71
2023/07/11 08:20:44;;;;;;;11.23;6.95;;;;;;;27.51;nan;100563.44;4969612;28;20061;-71
2023/07/11 08:23:10;;;;;;;9.80;7.03;;;;;;;27.56;nan;100575.97;4970535;28;20047;-72
2023/07/11 08:25:36;;;;;;;11.27;7.50;;;;;;;27.61;nan;100566.81;4967818;28;20045;-72
2023/07/11 08:28:02;;;;;;;12.27;6.90;;;;;;;27.64;nan;100561.53;4973772;28;20019;-74
2023/07/11 08:30:28;;;;;;;9.20;6.70;;;;;;;27.71;nan;100561.75;4970868;28;20711;-73
2023/07/11 08:32:53;;;;;;;10.68;7.30;;;;;;;27.84;nan;100575.31;4972788;28;20026;-73
2023/07/11 08:35:18;;;;;;;10.67;7.33;;;;;;;27.89;nan;100564.28;4972619;28;20026;-73
2023/07/11 08:37:44;;;;;;;9.52;6.68;;;;;;;27.86;nan;100554.13;4972868;28;20312;-72
2023/07/11 08:40:18;;;;;;;10.85;6.45;;;;;;;27.91;nan;100559.31;4973243;28;20023;-73
2023/07/11 08:42:44;;;;;;;16.48;7.10;;;;;;;28.02;nan;100559.69;4971316;28;20027;-72
2023/07/11 08:45:18;;;;;;;15.00;7.32;;;;;;;28.09;nan;100560.69;4971836;28;20033;-73
2023/07/11 08:47:54;;;;;;;12.18;7.10;;;;;;;28.16;nan;100555.47;4971649;28;20524;-73
2023/07/11 08:50:26;;;;;;;11.02;7.13;;;;;;;28.25;nan;100557.28;4956411;28;20606;-75
2023/07/11 08:53:03;;;;;;;8.38;6.72;;;;;;;28.25;nan;100541.81;4955336;28;20035;-75
2023/07/11 08:55:32;;;;;;;11.00;7.10;;;;;;;28.49;nan;100543.69;4971297;28;20039;-74
2023/07/11 08:58:15;;;;;;;11.80;7.55;;;;;;;28.57;nan;100536.59;4973709;28;20031;-75
2023/07/11 09:00:45;;;;;;;12.73;7.63;;;;;;;28.63;nan;100529.78;4971436;28;20034;-76
2023/07/11 09:03:26;;;;;;;10.00;7.13;;;;;;;28.65;nan;100511.25;4967885;28;20033;-74
2023/07/11 09:06:12;;;;;;;11.52;6.25;;;;;;;28.92;nan;100536.78;4954862;28;20026;-74
2023/07/11 09:08:43;;;;;;;13.80;6.45;;;;;;;29.05;nan;100521.25;4971317;28;20089;-75
2023/07/11 09:11:22;;;;;;;9.75;6.10;;;;;;;29.15;nan;100534.34;4973845;28;20109;-75
2023/07/11 09:14:14;;;;;;;8.32;6.25;;;;;;;29.24;nan;100534.19;4968806;28;20088;-74
2023/07/11 09:16:51;;;;;;;10.85;6.63;;;;;;;29.26;nan;100532.69;4971259;28;20042;-75
2023/07/11 09:19:23;;;;;;;14.65;6.40;;;;;;;29.37;nan;100541.09;4955424;28;20034;-76
2023/07/11 09:22:20;;;;;;;9.45;6.60;;;;;;;29.42;nan;100531.91;4947313;28;20027;-76
2023/07/11 09:25:07;;;;;;;12.73;7.07;;;;;;;29.47;nan;100540.59;4972710;28;20042;-76
2023/07/11 09:27:44;;;;;;;11.60;6.88;;;;;;;29.56;nan;100539.63;4955553;28;20280;-75
2023/07/11 09:30:34;;;;;;;11.68;6.47;;;;;;;29.65;nan;100540.25;4972741;28;20097;-76
2023/07/11 09:33:20;;;;;;;15.45;6.93;;;;;;;29.73;nan;100536.56;4972310;28;20563;-76
2023/07/11 09:35:47;;;;;;;9.90;6.53;;;;;;;29.77;nan;100540.16;4975374;28;20505;-76
2023/07/11 09:38:32;;;;;;;16.95;7.32;;;;;;;29.85;nan;100541.91;4980929;28;20034;-75
2023/07/11 09:41:08;;;;;;;11.38;6.93;;;;;;;29.92;nan;100527.72;4975385;28;20031;-76
2023/07/11 09:43:34;;;;;;;9.10;7.20;;;;;;;29.99;nan;100527.88;4952738;28;20451;-76
2023/07/11 09:45:59;;;;;;;12.38;6.53;;;;;;;30.12;nan;100525.81;4972245;28;20035;-77
2023/07/11 09:48:31;;;;;;;11.10;7.15;;;;;;;30.22;nan;100519.06;4984770;28;20035;-76
2023/07/11 09:51:14;;;;;;;10.48;7.35;;;;;;;30.27;nan;100511.44;4992014;28;20039;-78
2023/07/11 09:53:44;;;;;;;13.55;7.00;;;;;;;30.37;nan;100510.09;4974866;28;20033;-77
2023/07/11 09:56:12;;;;;;;9.40;6.78;;;;;;;30.47;nan;100520.38;4976778;28;20035;-76
2023/07/11 09:58:37;;;;;;;10.27;7.20;;;;;;;30.49;nan;100507.25;4980485;28;20031;-78
2023/07/11 10:01:06;;;;;;;11.82;6.80;;;;;;;30.59;nan;100511.31;4959406;28;20027;-77
2023/07/11 10:03:35;;;;;;;12.55;6.57;;;;;;;30.66;nan;100506.03;4975705;28;20035;-75
2023/07/11 10:06:04;;;;;;;11.88;6.75;;;;;;;30.78;nan;100510.53;4955453;28;20619;-71
2023/07/11 10:08:40;;;;;;;11.88;7.18;;;;;;;30.88;nan;100509.16;4966859;28;20073;-72
2023/07/11 10:11:13;;;;;;;12.20;6.35;;;;;;;31.04;nan;100509.88;4969801;28;20042;-72
2023/07/11 10:13:44;;;;;;;12.18;6.78;;;;;;;31.17;nan;100510.47;4966760;28;20023;-72
2023/07/11 10:16:17;;;;;;;14.15;6.90;;;;;;;31.30;nan;100509.16;4964340;28;21671;-74
2023/07/11 10:18:43;;;;;;;12.30;6.65;;;;;;;31.35;nan;100497.19;4962774;28;20041;-74
2023/07/11 10:21:23;;;;;;;8.57;6.30;;;;;;;31.43;nan;100490.72;4963804;28;20500;-72
2023/07/11 10:23:50;;;;;;;9.73;6.10;;;;;;;31.59;nan;100504.19;4966505;28;20042;-72
2023/07/11 10:26:27;;;;;;;15.57;6.63;;;;;;;31.66;nan;100495.38;4967338;28;20149;-72
2023/07/11 10:29:14;;;;;;;9.85;6.43;;;;;;;31.73;nan;100496.25;4966519;28;20694;-72
2023/07/11 10:31:59;;;;;;;11.52;6.13;;;;;;;31.78;nan;100492.44;4962738;28;20032;-72
2023/07/11 10:34:39;;;;;;;12.15;6.40;;;;;;;31.91;nan;100498.44;4963151;28;20037;-71
2023/07/11 10:37:12;;;;;;;10.63;6.45;;;;;;;31.92;nan;100491.84;4959395;28;20452;-71
2023/07/11 10:39:48;;;;;;;10.20;6.18;;;;;;;31.92;nan;100489.91;4969460;28;20190;-70
2023/07/11 10:42:31;;;;;;;10.02;5.97;;;;;;;31.95;nan;100486.47;4967444;28;20030;-71
2023/07/11 10:45:23;;;;;;;10.70;5.82;;;;;;;32.04;nan;100486.22;4966932;28;20027;-70
2023/07/11 10:48:16;;;;;;;12.15;5.85;;;;;;;32.21;nan;100498.50;4947246;28;20046;-71
2023/07/11 10:50:49;;;;;;;12.55;6.13;;;;;;;32.24;nan;100496.97;4968540;28;20398;-71
2023/07/11 10:53:20;;;;;;;11.00;6.03;;;;;;;32.29;nan;100499.38;4966520;28;20036;-71
2023/07/11 10:55:58;;;;;;;10.70;5.80;;;;;;;32.22;nan;100486.44;4944680;28;20033;-71
2023/07/11 10:58:24;;;;;;;11.40;6.37;;;;;;;32.30;nan;100485.38;4967451;28;20038;-72
2023/07/11 11:01:15;;;;;;;11.40;5.93;;;;;;;32.33;nan;100492.03;4967021;28;20031;-72
2023/07/11 11:03:46;;;;;;;8.43;6.15;;;;;;;32.26;nan;100500.13;4963863;28;20038;-72
2023/07/11 11:06:27;;;;;;;9.32;6.10;;;;;;;32.17;nan;100487.53;4964688;28;20022;-71
2023/07/11 11:09:07;;;;;;;11.13;5.85;;;;;;;32.20;nan;100480.56;4962287;28;20063;-72
2023/07/11 11:11:56;;;;;;;9.15;5.85;;;;;;;32.31;nan;100491.59;4966028;28;20055;-71
2023/07/11 11:14:34;;;;;;;8.32;6.00;;;;;;;32.38;nan;100481.56;4968734;28;20053;-74
2023/07/11 11:17:11;;;;;;;9.23;5.82;;;;;;;32.44;nan;100482.00;4963545;28;20031;-74
2023/07/11 11:19:56;;;;;;;8.75;6.65;;;;;;;32.49;nan;100468.06;4964639;28;20432;-73
2023/07/11 11:22:33;;;;;;;7.63;5.80;;;;;;;32.53;nan;100462.69;4963367;28;20038;-74
2023/07/11 11:25:00;;;;;;;10.50;6.25;;;;;;;32.70;nan;100475.72;4979070;28;20033;-72
2023/07/11 11:28:04;;;;;;;10.30;6.70;;;;;;;32.74;nan;100478.50;4962993;28;20486;-73
2023/07/11 11:30:42;;;;;;;13.15;7.40;;;;;;;32.66;nan;100474.91;4979804;28;20066;-73
2023/07/11 11:33:29;;;;;;;9.82;6.50;;;;;;;32.70;nan;100483.91;4966441;28;20023;-73
2023/07/11 11:35:57;;;;;;;12.15;6.93;;;;;;;32.77;nan;100472.28;4965951;28;20535;-72
2023/07/11 11:38:38;;;;;;;8.93;6.18;;;;;;;32.74;nan;100471.09;4968649;28;20030;-76
2023/07/11 11:41:10;;;;;;;11.68;6.57;;;;;;;32.71;nan;100474.56;4956948;28;20121;-76